createdAt,value
2023-04-18T00:01:36.109Z,96.11
2023-04-18T00:05:12.718Z,96.13
2023-04-18T00:09:21.148Z,96.04
2023-04-18T00:13:13.267Z,96.05
2023-04-18T00:17:29.443Z,96.10
2023-04-18T00:21:41.407Z,96.16
2023-04-18T00:26:25.417Z,96.34
2023-04-18T00:30:39.114Z,96.24
2023-04-18T00:34:39.842Z,96.43
2023-04-18T00:39:23.957Z,96.46
2023-04-18T00:43:56.097Z,96.37
2023-04-18T00:49:41.078Z,96.34
2023-04-18T00:54:05.021Z,96.59
2023-04-18T00:58:52.225Z,96.72
2023-04-18T01:03:05.447Z,96.83
2023-04-18T01:07:25.636Z,96.72
2023-04-18T01:11:33.891Z,96.82
2023-04-18T01:15:49.039Z,96.88
2023-04-18T01:20:17.963Z,96.72
2023-04-18T01:26:20.125Z,96.59
2023-04-18T01:30:48.518Z,96.64
2023-04-18T01:34:57.987Z,96.64
2023-04-18T01:39:29.659Z,96.59
2023-04-18T01:43:32.301Z,96.58
2023-04-18T01:47:30.032Z,96.58
2023-04-18T01:51:58.066Z,96.37
2023-04-18T01:56:21.934Z,96.39
2023-04-18T02:01:02.371Z,96.33
2023-04-18T02:05:03.713Z,96.42
2023-04-18T02:09:11.368Z,96.29
2023-04-18T02:15:53.881Z,96.00
2023-04-18T02:20:15.516Z,95.82
2023-04-18T02:24:43.548Z,95.54
2023-04-18T02:28:53.008Z,95.54
2023-04-18T02:33:05.413Z,95.54
2023-04-18T02:37:07.272Z,95.62
2023-04-18T02:41:44.305Z,95.57
2023-04-18T02:45:49.203Z,95.57
2023-04-18T02:49:57.067Z,95.43
2023-04-18T02:54:23.564Z,95.16
2023-04-18T02:58:33.381Z,95.21
2023-04-18T03:02:48.627Z,95.11
2023-04-18T03:06:18.537Z,95.09
2023-04-18T03:10:22.821Z,95.05
2023-04-18T03:14:35.002Z,94.95
2023-04-18T03:18:46.422Z,94.97
2023-04-18T03:23:08.547Z,94.89
2023-04-18T03:27:32.809Z,94.71
2023-04-18T03:31:58.436Z,94.16
2023-04-18T03:36:21.177Z,93.23
2023-04-18T03:40:28.651Z,92.79
2023-04-18T03:44:53.333Z,92.49
2023-04-18T03:49:20.760Z,92.30
2023-04-18T03:53:47.021Z,92.02
2023-04-18T03:58:31.346Z,91.58
2023-04-18T04:03:03.688Z,91.60
2023-04-18T04:10:54.520Z,91.45
2023-04-18T04:14:59.017Z,91.01
2023-04-18T04:19:03.217Z,91.16
2023-04-18T04:23:09.634Z,91.16
2023-04-18T04:27:24.432Z,91.14
2023-04-18T04:31:56.957Z,91.35
2023-04-18T04:35:52.445Z,91.51
2023-04-18T04:39:58.307Z,91.47
2023-04-18T04:44:12.131Z,91.53
2023-04-18T04:48:25.602Z,91.22
2023-04-18T04:52:49.873Z,91.13
2023-04-18T04:56:52.085Z,90.57
2023-04-18T05:00:56.429Z,90.52
2023-04-18T05:04:49.864Z,90.06
2023-04-18T05:09:33.905Z,89.32
2023-04-18T05:13:58.286Z,89.55
2023-04-18T05:18:05.405Z,89.57
2023-04-18T05:22:44.895Z,89.34
2023-04-18T05:26:53.156Z,88.92
2023-04-18T05:31:05.692Z,88.88
2023-04-18T05:35:10.922Z,88.65
2023-04-18T05:39:11.999Z,88.60
2023-04-18T05:43:38.348Z,88.29
2023-04-18T05:47:48.698Z,88.10
2023-04-18T05:52:02.350Z,88.28
2023-04-18T05:56:08.945Z,88.17
2023-04-18T06:00:17.132Z,88.10
2023-04-18T06:04:15.075Z,88.19
2023-04-18T06:08:39.052Z,88.32
2023-04-18T06:13:03.504Z,88.27
2023-04-18T06:17:20.213Z,87.94
2023-04-18T06:21:49.196Z,88.07
2023-04-18T06:25:45.748Z,87.86
2023-04-18T06:29:50.176Z,87.46
2023-04-18T06:33:47.719Z,86.78
2023-04-18T06:37:53.453Z,86.52
2023-04-18T06:42:01.557Z,85.67
2023-04-18T06:46:18.341Z,85.43
2023-04-18T06:50:22.931Z,84.61
2023-04-18T06:54:27.154Z,84.38
2023-04-18T06:58:58.657Z,83.99
2023-04-18T07:03:20.633Z,83.84
2023-04-18T07:07:29.093Z,84.00
2023-04-18T07:11:35.417Z,84.22
2023-04-18T07:15:31.947Z,83.54
2023-04-18T07:19:36.833Z,82.57
2023-04-18T07:24:15.452Z,82.55
2023-04-18T07:28:04.706Z,82.08
2023-04-18T07:31:47.876Z,81.82
2023-04-18T07:35:53.590Z,81.97
2023-04-18T07:39:56.683Z,81.84
2023-04-18T07:44:11.297Z,81.55
2023-04-18T07:48:17.343Z,81.73
2023-04-18T07:52:27.259Z,81.02
2023-04-18T07:56:21.627Z,79.65
2023-04-18T08:00:16.440Z,79.83
2023-04-18T08:04:03.113Z,78.59
2023-04-18T08:07:53.334Z,76.29
2023-04-18T08:11:47.494Z,76.14
2023-04-18T08:15:53.478Z,74.98
2023-04-18T08:19:49.681Z,74.58
2023-04-18T08:24:01.915Z,73.06
2023-04-18T08:27:10.830Z,72.09
2023-04-18T08:30:59.180Z,70.01
2023-04-18T08:34:42.799Z,69.77
2023-04-18T08:37:54.756Z,66.87
2023-04-18T08:41:40.509Z,64.69
2023-04-18T08:45:15.650Z,62.38
2023-04-18T08:48:29.829Z,62.20
2023-04-18T08:51:59.956Z,61.21
2023-04-18T08:55:53.265Z,61.15
2023-04-18T08:59:02.864Z,62.43
2023-04-18T09:02:15.756Z,61.82
2023-04-18T09:05:39.121Z,60.33
2023-04-18T09:08:48.177Z,59.28
2023-04-18T09:12:25.005Z,59.67
2023-04-18T09:15:42.722Z,59.76
2023-04-18T09:19:20.129Z,60.02
2023-04-18T09:22:49.195Z,59.14
2023-04-18T09:25:53.858Z,59.14
2023-04-18T09:28:57.004Z,58.17
2023-04-18T09:32:05.824Z,57.98
2023-04-18T09:35:24.378Z,59.45
2023-04-18T09:38:56.292Z,57.44
2023-04-18T09:42:19.463Z,55.41
2023-04-18T09:45:28.177Z,55.26
2023-04-18T09:48:47.831Z,55.97
2023-04-18T09:52:14.402Z,57.28
2023-04-18T09:55:47.279Z,56.23
2023-04-18T09:59:05.637Z,57.20
2023-04-18T10:02:23.528Z,56.46
2023-04-18T10:05:36.341Z,55.43
2023-04-18T10:08:56.272Z,54.65
2023-04-18T10:12:25.595Z,54.49
2023-04-18T10:15:38.992Z,53.37
2023-04-18T10:18:55.009Z,52.58
2023-04-18T10:22:08.259Z,52.98
2023-04-18T10:26:00.188Z,52.98
2023-04-18T10:29:50.740Z,53.13
2023-04-18T10:33:30.502Z,52.32
2023-04-18T10:37:05.996Z,51.37
2023-04-18T10:40:34.967Z,50.37
2023-04-18T10:44:15.670Z,50.81
2023-04-18T10:47:21.992Z,49.08
2023-04-18T10:51:01.390Z,48.58
2023-04-18T10:54:18.901Z,47.76
2023-04-18T10:57:57.558Z,46.64
2023-04-18T11:01:07.759Z,46.61
2023-04-18T11:04:19.614Z,45.10
2023-04-18T11:07:54.872Z,45.88
2023-04-18T11:11:20.446Z,45.06
2023-04-18T11:14:41.920Z,44.36
2023-04-18T11:18:03.287Z,45.09
2023-04-18T11:21:40.675Z,45.16
2023-04-18T11:25:11.050Z,45.29
2023-04-18T11:29:10.949Z,44.66
2023-04-18T11:32:24.715Z,43.85
2023-04-18T11:35:56.674Z,44.44
2023-04-18T11:39:08.784Z,44.49
2023-04-18T11:42:17.743Z,45.39
2023-04-18T11:45:27.548Z,44.71
2023-04-18T11:48:56.324Z,44.89
2023-04-18T11:52:15.666Z,46.19
2023-04-18T11:55:26.041Z,46.12
2023-04-18T11:58:37.275Z,46.35
2023-04-18T12:02:16.542Z,46.84
2023-04-18T12:05:27.347Z,46.52
2023-04-18T12:08:53.939Z,46.35
2023-04-18T12:12:23.424Z,45.50
2023-04-18T12:15:58.301Z,43.77
2023-04-18T12:19:11.372Z,42.78
2023-04-18T12:22:55.606Z,43.30
2023-04-18T12:26:14.511Z,43.24
2023-04-18T12:29:21.526Z,42.96
2023-04-18T12:32:37.879Z,42.40
2023-04-18T12:36:05.627Z,40.79
2023-04-18T12:39:30.974Z,40.93
2023-04-18T12:42:36.198Z,40.17
2023-04-18T12:45:42.396Z,39.19
2023-04-18T12:49:09.275Z,39.20
2023-04-18T12:52:20.123Z,39.45
2023-04-18T12:56:02.690Z,39.17
2023-04-18T12:59:30.429Z,39.36
2023-04-18T13:03:31.080Z,39.34
2023-04-18T13:07:02.406Z,38.83
2023-04-18T13:10:29.219Z,38.26
2023-04-18T13:13:56.465Z,37.70
2023-04-18T13:17:27.652Z,38.53
2023-04-18T13:20:50.001Z,39.61
2023-04-18T13:24:16.745Z,40.37
2023-04-18T13:28:05.478Z,41.04
2023-04-18T13:31:53.294Z,39.80
2023-04-18T13:35:21.665Z,40.20
2023-04-18T13:39:00.090Z,40.87
2023-04-18T13:42:49.096Z,41.36
2023-04-18T13:46:34.352Z,40.41
2023-04-18T13:49:58.087Z,40.69
2023-04-18T13:53:09.600Z,41.15
2023-04-18T13:56:16.672Z,41.03
2023-04-18T14:00:32.197Z,39.25
2023-04-18T14:04:14.865Z,39.16
2023-04-18T14:07:34.103Z,39.21
2023-04-18T14:11:01.338Z,39.93
2023-04-18T14:14:49.169Z,40.09
2023-04-18T14:18:12.000Z,39.90
2023-04-18T14:22:05.355Z,40.40
2023-04-18T14:26:14.119Z,40.27
2023-04-18T14:29:54.194Z,40.76
2023-04-18T14:34:04.735Z,41.25
2023-04-18T14:41:33.220Z,39.29
2023-04-18T14:44:47.489Z,39.08
2023-04-18T14:48:12.660Z,38.39
2023-04-18T14:51:15.842Z,36.37
2023-04-18T14:54:19.448Z,37.33
2023-04-18T14:57:25.707Z,37.97
2023-04-18T15:01:09.324Z,38.20
2023-04-18T15:04:31.099Z,35.94
2023-04-18T15:15:39.404Z,36.95
2023-04-18T15:19:02.602Z,36.47
2023-04-18T15:22:18.495Z,36.53
2023-04-18T15:26:05.394Z,36.30
2023-04-18T15:29:29.150Z,36.68
2023-04-18T15:32:36.983Z,35.93
2023-04-18T15:36:02.938Z,36.76
2023-04-18T15:39:29.497Z,36.51
2023-04-18T15:51:12.349Z,37.97
2023-04-18T15:54:23.244Z,38.06
2023-04-18T15:57:35.245Z,38.73
2023-04-18T16:01:40.815Z,38.73
2023-04-18T16:05:18.400Z,39.40
2023-04-18T16:09:10.853Z,39.16
2023-04-18T16:13:18.768Z,39.79
2023-04-18T16:17:04.314Z,39.73
2023-04-18T16:20:33.487Z,40.14
2023-04-18T16:24:18.901Z,40.97
2023-04-18T16:27:44.436Z,41.32
2023-04-18T16:31:12.050Z,41.43
2023-04-18T16:34:40.013Z,41.32
2023-04-18T16:38:05.511Z,41.83
2023-04-18T16:41:33.064Z,41.94
2023-04-18T16:44:53.892Z,42.49
2023-04-18T16:48:38.755Z,42.60
2023-04-18T16:52:00.158Z,43.40
2023-04-18T16:55:23.381Z,43.29
2023-04-18T16:58:57.112Z,43.65
2023-04-18T17:02:44.322Z,43.90
2023-04-18T17:07:00.804Z,44.22
2023-04-18T17:11:10.115Z,44.83
2023-04-18T17:15:08.448Z,45.36
2023-04-18T17:18:52.273Z,45.56
2023-04-18T17:22:54.692Z,46.10
2023-04-18T17:26:37.388Z,46.50
2023-04-18T17:30:04.902Z,46.91
2023-04-18T17:34:14.450Z,47.42
2023-04-18T17:38:26.592Z,47.97
2023-04-18T17:42:30.658Z,48.54
2023-04-18T17:47:01.074Z,49.17
2023-04-18T17:50:51.369Z,49.68
2023-04-18T17:55:36.895Z,50.47
2023-04-18T17:59:44.196Z,50.70
2023-04-18T18:03:49.879Z,51.12
2023-04-18T18:07:59.632Z,51.93
2023-04-18T18:12:44.016Z,52.80
2023-04-18T18:16:20.091Z,53.33
2023-04-18T18:20:31.421Z,53.76
2023-04-18T18:24:44.348Z,54.01
2023-04-18T18:28:34.368Z,54.41
2023-04-18T18:32:39.288Z,54.78
2023-04-18T18:41:04.714Z,55.46
2023-04-18T18:45:07.772Z,55.57
2023-04-18T18:49:22.111Z,55.90
2023-04-18T18:53:22.598Z,56.36
2023-04-18T18:57:12.479Z,56.29
2023-04-18T19:01:08.836Z,56.56
2023-04-18T19:05:26.909Z,57.38
2023-04-18T19:09:44.435Z,57.89
2023-04-18T19:14:03.461Z,58.52
2023-04-18T19:17:48.842Z,59.47
2023-04-18T19:21:47.294Z,60.24
2023-04-18T19:25:55.126Z,63.22
2023-04-18T19:29:45.538Z,65.46
2023-04-18T19:33:21.563Z,65.82
2023-04-18T19:37:38.364Z,67.39
2023-04-18T19:42:10.464Z,68.52
2023-04-18T19:46:00.078Z,68.74
2023-04-18T19:50:11.247Z,70.04
2023-04-18T19:54:27.555Z,70.24
2023-04-18T19:58:35.489Z,70.14
2023-04-18T20:02:29.647Z,70.52
2023-04-18T20:10:35.903Z,72.03
2023-04-18T20:14:25.610Z,72.87
2023-04-18T20:18:27.965Z,73.83
2023-04-18T20:22:55.469Z,74.67
2023-04-18T20:26:30.596Z,75.43
2023-04-18T20:30:26.930Z,75.81
2023-04-18T20:34:25.446Z,76.75
2023-04-18T20:38:42.774Z,77.25
2023-04-18T20:42:47.405Z,77.38
2023-04-18T20:47:02.350Z,77.54
2023-04-18T20:50:58.189Z,77.67
2023-04-18T20:55:11.460Z,77.49
2023-04-18T20:59:15.480Z,77.24
2023-04-18T21:03:30.118Z,76.82
2023-04-18T21:07:33.110Z,76.63
2023-04-18T21:11:45.408Z,76.62
2023-04-18T21:16:11.699Z,76.74
2023-04-18T21:20:19.549Z,76.75
2023-04-18T21:24:10.916Z,76.94
2023-04-18T21:28:07.946Z,76.90
2023-04-18T21:32:04.417Z,76.98
2023-04-18T21:36:17.141Z,76.96
2023-04-18T21:40:32.555Z,77.11
2023-04-18T21:44:38.050Z,77.45
2023-04-18T21:49:02.385Z,77.65
2023-04-18T21:53:41.501Z,78.44
2023-04-18T21:57:32.227Z,79.15
2023-04-18T22:01:27.342Z,79.52
2023-04-18T22:05:31.201Z,79.37
2023-04-18T22:09:43.241Z,81.06
2023-04-18T22:13:55.621Z,81.51
2023-04-18T22:18:24.485Z,82.07
2023-04-18T22:22:19.097Z,82.31
2023-04-18T22:26:23.530Z,82.31
2023-04-18T22:30:20.710Z,82.05
2023-04-18T22:34:24.918Z,82.27
2023-04-18T22:38:12.022Z,82.19
2023-04-18T22:42:33.778Z,82.27
2023-04-18T22:46:54.543Z,82.38
2023-04-18T22:51:14.369Z,82.20
2023-04-18T22:55:30.117Z,82.23
2023-04-18T22:59:36.823Z,82.00
2023-04-18T23:03:46.544Z,82.40
2023-04-18T23:07:49.801Z,82.41
2023-04-18T23:12:05.686Z,82.68
2023-04-18T23:16:18.810Z,83.25
2023-04-18T23:20:10.431Z,83.50
2023-04-18T23:24:09.597Z,83.80
2023-04-18T23:28:33.952Z,83.64
2023-04-18T23:32:44.151Z,84.24
2023-04-18T23:36:48.559Z,84.33
2023-04-18T23:40:53.481Z,84.33
2023-04-18T23:45:21.728Z,84.14
2023-04-18T23:49:45.763Z,84.04
2023-04-18T23:53:48.449Z,84.15
2023-04-18T23:57:45.159Z,84.44
